Time;durP1;ratioP1;P1;durP2;ratioP2;P2;SDS_P1;SDS_P2;PMS_P1;PMS_P2;Temp;Humidity;BMP_temperature;BMP_pressure;BME280_temperature;BME280_humidity;BME280_pressure;Samples;Min_cycle;Max_cycle;Signal;HPM_P1;HPM_P2
2022/08/17 00:00:51;;;;;;;33.83;30.25;;;20.40;99.90;;;;;;5056953;28;20091;-71
2022/08/17 00:03:18;;;;;;;35.78;32.08;;;20.30;99.90;;;;;;5056826;28;20150;-72
2022/08/17 00:05:51;;;;;;;35.25;31.60;;;20.30;99.90;;;;;;5057065;28;20045;-72
2022/08/17 00:08:21;;;;;;;32.88;29.42;;;20.40;99.90;;;;;;5056019;28;20037;-70
2022/08/17 00:10:48;;;;;;;36.88;33.00;;;20.40;99.90;;;;;;5056836;28;20363;-70
2022/08/17 00:13:29;;;;;;;33.03;29.83;;;20.40;99.90;;;;;;5056265;28;20459;-71
2022/08/17 00:16:01;;;;;;;36.22;32.42;;;20.40;99.90;;;;;;5038798;28;20059;-72
2022/08/17 00:18:30;;;;;;;40.30;33.13;;;20.30;99.90;;;;;;5056522;28;20356;-72
2022/08/17 00:20:58;;;;;;;34.30;30.98;;;20.30;99.90;;;;;;5055683;28;20037;-72
2022/08/17 00:23:24;;;;;;;35.15;31.42;;;20.20;99.90;;;;;;5056415;28;20452;-72
2022/08/17 00:25:51;;;;;;;38.45;34.33;;;20.20;99.90;;;;;;5056538;28;20037;-70
2022/08/17 00:28:17;;;;;;;32.13;28.70;;;20.30;99.90;;;;;;5056373;28;20124;-70
2022/08/17 00:30:44;;;;;;;34.45;30.80;;;20.20;99.90;;;;;;5056267;28;20077;-70
2022/08/17 00:33:14;;;;;;;38.20;34.17;;;20.20;99.90;;;;;;5056150;28;20053;-69
2022/08/17 00:35:40;;;;;;;36.75;32.78;;;20.20;99.90;;;;;;5055329;28;20041;-72
2022/08/17 00:38:08;;;;;;;36.13;31.38;;;20.20;99.90;;;;;;5075552;28;20040;-71
2022/08/17 00:40:50;;;;;;;38.13;34.03;;;20.20;99.90;;;;;;5076338;28;20059;-71
2022/08/17 00:43:21;;;;;;;38.15;34.15;;;20.20;99.90;;;;;;5076033;28;20113;-71
2022/08/17 00:45:47;;;;;;;36.70;32.80;;;20.20;99.90;;;;;;5058985;28;20125;-70
2022/08/17 00:48:13;;;;;;;38.90;34.22;;;20.20;99.90;;;;;;5058689;28;20052;-72
2022/08/17 00:50:47;;;;;;;37.80;33.95;;;20.10;99.90;;;;;;5054644;28;20146;-73
2022/08/17 00:53:12;;;;;;;38.65;33.92;;;20.10;99.90;;;;;;5038599;28;20129;-72
2022/08/17 00:55:38;;;;;;;35.67;31.95;;;20.10;99.90;;;;;;5055990;28;20124;-71
2022/08/17 00:58:05;;;;;;;37.05;33.15;;;20.10;99.90;;;;;;5055695;28;20041;-70
2022/08/17 01:00:36;;;;;;;37.95;33.95;;;20.10;99.90;;;;;;5038406;28;20087;-70
2022/08/17 01:03:17;;;;;;;37.38;33.28;;;20.10;99.90;;;;;;5038273;28;20041;-70
2022/08/17 01:05:43;;;;;;;37.33;33.33;;;20.10;99.90;;;;;;5054081;28;20079;-71
2022/08/17 01:08:15;;;;;;;39.33;35.42;;;20.00;99.90;;;;;;5055522;28;20081;-73
2022/08/17 01:10:47;;;;;;;37.28;33.30;;;20.10;99.90;;;;;;5055441;28;20090;-72
2022/08/17 01:13:14;;;;;;;38.22;33.92;;;20.10;99.90;;;;;;5055677;28;20049;-72
2022/08/17 01:15:46;;;;;;;37.25;32.88;;;20.00;99.90;;;;;;5038113;28;20049;-70
2022/08/17 01:18:13;;;;;;;38.30;33.22;;;20.00;99.90;;;;;;5055481;28;20051;-70
2022/08/17 01:20:45;;;;;;;37.88;33.58;;;20.10;99.90;;;;;;5037284;28;20052;-69
2022/08/17 01:23:11;;;;;;;37.40;33.13;;;20.10;99.90;;;;;;5055449;28;20471;-70
2022/08/17 01:25:37;;;;;;;37.40;33.67;;;20.10;99.90;;;;;;5037554;28;20057;-70
2022/08/17 01:28:03;;;;;;;40.13;35.92;;;20.10;99.90;;;;;;5037052;28;20040;-73
2022/08/17 01:30:29;;;;;;;38.20;34.22;;;20.10;99.90;;;;;;5055333;28;20080;-71
2022/08/17 01:32:55;;;;;;;40.10;36.03;;;20.10;99.90;;;;;;5054843;28;20088;-70
2022/08/17 01:35:21;;;;;;;41.20;36.78;;;20.00;99.90;;;;;;5037499;28;20133;-72
2022/08/17 01:37:46;;;;;;;41.85;37.35;;;20.00;99.90;;;;;;5061018;28;20415;-70
2022/08/17 01:40:23;;;;;;;39.35;35.45;;;20.00;99.90;;;;;;5057795;28;20041;-72
2022/08/17 01:42:53;;;;;;;39.08;34.92;;;19.90;99.90;;;;;;5057797;28;20052;-70
2022/08/17 01:45:26;;;;;;;40.00;35.83;;;19.80;99.90;;;;;;5075177;28;20054;-72
2022/08/17 01:47:53;;;;;;;39.40;34.28;;;19.90;99.90;;;;;;5074959;28;20118;-69
2022/08/17 01:50:29;;;;;;;45.22;39.30;;;19.80;99.90;;;;;;5056674;28;20052;-72
2022/08/17 01:53:03;;;;;;;40.78;36.40;;;19.70;99.90;;;;;;5072959;28;20463;-70
2022/08/17 01:55:52;;;;;;;44.67;36.90;;;19.70;99.90;;;;;;5057539;28;20455;-70
2022/08/17 01:58:18;;;;;;;39.03;34.58;;;19.70;99.90;;;;;;5073919;28;20447;-69
2022/08/17 02:00:46;;;;;;;41.45;37.33;;;19.60;99.90;;;;;;5074831;28;20036;-69
2022/08/17 02:03:12;;;;;;;42.35;36.10;;;19.60;99.90;;;;;;5074852;28;20040;-71
2022/08/17 02:05:38;;;;;;;41.63;37.28;;;19.50;99.90;;;;;;5047286;28;20117;-70
2022/08/17 02:08:06;;;;;;;39.75;35.00;;;19.50;99.90;;;;;;5037523;28;20091;-70
2022/08/17 02:10:32;;;;;;;38.17;34.13;;;19.50;99.90;;;;;;5054583;28;20045;-70
2022/08/17 02:12:59;;;;;;;41.95;37.50;;;19.50;99.90;;;;;;5037231;28;20059;-71
2022/08/17 02:15:25;;;;;;;44.15;37.38;;;19.40;99.90;;;;;;5054672;28;20530;-71
2022/08/17 02:17:50;;;;;;;43.22;38.83;;;19.40;99.90;;;;;;5054285;28;20041;-70
2022/08/17 02:20:16;;;;;;;42.53;37.53;;;19.30;99.90;;;;;;5039803;28;20055;-72
2022/08/17 02:22:44;;;;;;;38.80;34.63;;;19.40;99.90;;;;;;5074716;28;20161;-72
2022/08/17 02:25:13;;;;;;;39.25;35.10;;;19.30;99.90;;;;;;5074588;28;20045;-70
2022/08/17 02:27:39;;;;;;;44.40;38.30;;;19.30;99.90;;;;;;5074574;28;20178;-71
2022/08/17 02:30:07;;;;;;;39.90;34.90;;;19.30;99.90;;;;;;5074571;28;20068;-70
2022/08/17 02:32:33;;;;;;;44.92;35.13;;;19.30;99.90;;;;;;5053186;28;20068;-70
2022/08/17 02:34:59;;;;;;;42.70;37.92;;;19.30;99.90;;;;;;5051753;28;20061;-71
2022/08/17 02:37:26;;;;;;;42.15;37.55;;;19.10;99.90;;;;;;5054605;28;20056;-70
2022/08/17 02:39:52;;;;;;;37.42;32.35;;;19.20;99.90;;;;;;5054680;28;20466;-72
2022/08/17 02:42:21;;;;;;;38.90;34.90;;;19.20;99.90;;;;;;5054420;28;20125;-69
2022/08/17 02:44:46;;;;;;;40.92;36.63;;;19.10;99.90;;;;;;5053726;28;20049;-71
2022/08/17 02:47:12;;;;;;;41.50;35.92;;;19.10;99.90;;;;;;5054589;28;20130;-70
2022/08/17 02:49:38;;;;;;;42.70;36.85;;;19.10;99.90;;;;;;5033721;28;20033;-72
2022/08/17 02:52:05;;;;;;;39.35;33.88;;;19.10;99.90;;;;;;5034532;28;20107;-70
2022/08/17 02:54:31;;;;;;;35.15;31.42;;;19.10;99.90;;;;;;5034605;28;20037;-69
2022/08/17 02:56:56;;;;;;;37.25;33.33;;;19.10;99.90;;;;;;5034406;28;20341;-70
2022/08/17 02:59:23;;;;;;;36.55;32.60;;;19.10;99.90;;;;;;5034480;28;20041;-72
2022/08/17 03:01:49;;;;;;;36.40;32.60;;;19.10;99.90;;;;;;5035621;28;20057;-70
2022/08/17 03:04:14;;;;;;;35.85;31.30;;;19.10;99.90;;;;;;5038483;28;20045;-69
2022/08/17 03:06:40;;;;;;;34.05;30.25;;;19.00;99.90;;;;;;5056891;28;20115;-71
2022/08/17 03:09:06;;;;;;;35.75;32.00;;;19.00;99.90;;;;;;5056768;28;20045;-71
2022/08/17 03:11:31;;;;;;;35.42;31.90;;;19.00;99.90;;;;;;5056937;28;20064;-70
2022/08/17 03:13:58;;;;;;;32.17;28.92;;;18.90;99.90;;;;;;5057881;28;20044;-69
2022/08/17 03:16:23;;;;;;;34.67;30.90;;;18.90;99.90;;;;;;5057708;28;20467;-69
2022/08/17 03:18:49;;;;;;;33.15;29.55;;;18.90;99.90;;;;;;5039216;28;20057;-69
2022/08/17 03:21:14;;;;;;;36.58;32.65;;;18.90;99.90;;;;;;5037691;28;20038;-72
2022/08/17 03:23:41;;;;;;;35.88;32.03;;;18.80;99.90;;;;;;5036739;28;20049;-70
2022/08/17 03:26:10;;;;;;;38.70;34.75;;;18.80;99.90;;;;;;5037050;28;20057;-70
2022/08/17 03:28:39;;;;;;;37.90;33.83;;;18.90;99.90;;;;;;5037005;28;20096;-71
2022/08/17 03:31:05;;;;;;;38.35;34.33;;;18.80;99.90;;;;;;5045239;28;20112;-70
2022/08/17 03:33:31;;;;;;;39.83;35.72;;;18.80;99.90;;;;;;5069821;28;20378;-70
2022/08/17 03:35:57;;;;;;;39.78;35.65;;;18.80;99.90;;;;;;5059540;28;20048;-72
2022/08/17 03:38:23;;;;;;;39.20;34.95;;;18.80;99.90;;;;;;5059592;28;20037;-71
2022/08/17 03:40:51;;;;;;;41.92;37.38;;;18.80;99.90;;;;;;5077259;28;20114;-72
2022/08/17 03:43:18;;;;;;;42.05;37.50;;;18.80;99.90;;;;;;5077371;28;20041;-70
2022/08/17 03:57:05;;;;;;;45.65;40.80;;;18.80;99.90;;;;;;5039575;28;20057;-70
2022/08/17 03:59:31;;;;;;;41.92;37.42;;;18.90;99.90;;;;;;5038808;28;20059;-71
2022/08/17 04:02:02;;;;;;;37.20;33.33;;;18.80;99.90;;;;;;5061898;28;20417;-71
2022/08/17 04:04:28;;;;;;;30.23;27.20;;;18.80;99.90;;;;;;5076978;28;20052;-72
2022/08/17 04:06:54;;;;;;;28.38;25.48;;;18.70;99.90;;;;;;5059430;28;20040;-72
2022/08/17 04:09:19;;;;;;;26.67;23.92;;;18.60;99.90;;;;;;5059232;28;20040;-70
2022/08/17 04:11:45;;;;;;;26.35;23.88;;;18.60;99.90;;;;;;5059046;28;20363;-70
2022/08/17 04:14:11;;;;;;;25.67;23.10;;;18.50;99.90;;;;;;5055741;28;20060;-70
2022/08/17 04:16:36;;;;;;;25.33;22.90;;;18.50;99.90;;;;;;5056684;28;20041;-70
2022/08/17 04:19:04;;;;;;;24.63;22.33;;;18.50;99.90;;;;;;5039333;28;20511;-70
2022/08/17 04:21:29;;;;;;;26.58;23.98;;;18.40;99.90;;;;;;5056668;28;20107;-71
2022/08/17 04:23:56;;;;;;;25.63;22.92;;;18.50;99.90;;;;;;5056469;28;20085;-70
2022/08/17 04:26:22;;;;;;;28.38;25.50;;;18.40;99.90;;;;;;5038900;28;20067;-70
2022/08/17 04:28:48;;;;;;;27.25;24.42;;;18.40;99.90;;;;;;5038266;28;20175;-72
2022/08/17 04:31:15;;;;;;;28.42;25.63;;;18.40;99.90;;;;;;5075781;28;20060;-71
2022/08/17 04:33:42;;;;;;;27.63;24.73;;;18.30;99.90;;;;;;5058644;28;20045;-70
2022/08/17 04:36:10;;;;;;;25.45;23.02;;;18.30;99.90;;;;;;5057576;28;20154;-70
2022/08/17 04:38:38;;;;;;;26.80;24.02;;;18.40;99.90;;;;;;5056372;28;20075;-70
2022/08/17 04:43:53;;;;;;;26.75;24.05;;;18.40;99.90;;;;;;5075882;28;20135;-71
2022/08/17 04:46:22;;;;;;;24.27;21.98;;;18.40;99.90;;;;;;5058921;28;20060;-70
2022/08/17 04:48:50;;;;;;;26.60;24.10;;;18.40;99.90;;;;;;5076108;28;20071;-70
2022/08/17 04:51:20;;;;;;;27.85;25.08;;;18.40;99.90;;;;;;5073712;28;20084;-69
2022/08/17 04:53:49;;;;;;;27.20;24.60;;;18.50;99.90;;;;;;5075942;28;20080;-72
2022/08/17 04:56:16;;;;;;;30.75;27.63;;;18.50;99.90;;;;;;5075968;28;20067;-71
2022/08/17 04:58:47;;;;;;;30.65;27.75;;;18.50;99.90;;;;;;5075882;28;20109;-70
2022/08/17 05:01:14;;;;;;;31.02;28.02;;;18.50;99.90;;;;;;5050900;28;20128;-71
2022/08/17 05:03:40;;;;;;;43.38;33.15;;;18.50;99.90;;;;;;5045755;28;20506;-70
2022/08/17 05:06:06;;;;;;;36.28;31.75;;;18.40;99.90;;;;;;5075926;28;20091;-71
2022/08/17 05:08:32;;;;;;;38.42;34.42;;;18.50;99.90;;;;;;5075593;28;20076;-69
2022/08/17 05:10:59;;;;;;;40.55;35.70;;;18.50;99.90;;;;;;5075335;28;20056;-71
2022/08/17 05:13:28;;;;;;;47.40;36.63;;;18.50;99.90;;;;;;5057880;28;20131;-70
2022/08/17 05:15:57;;;;;;;41.80;37.50;;;18.50;99.90;;;;;;5053370;28;20040;-70
2022/08/17 05:18:23;;;;;;;40.17;35.95;;;18.50;99.90;;;;;;5075620;28;20048;-71
2022/08/17 05:20:49;;;;;;;43.00;38.40;;;18.40;99.90;;;;;;5057513;28;20056;-70
2022/08/17 05:23:17;;;;;;;41.92;37.55;;;18.50;99.90;;;;;;5075331;28;20045;-72
2022/08/17 05:25:46;;;;;;;42.72;38.22;;;18.50;99.90;;;;;;5068872;28;20367;-71
2022/08/17 05:28:14;;;;;;;42.75;38.50;;;18.50;99.90;;;;;;5071268;28;20072;-70
2022/08/17 05:30:41;;;;;;;106.45;41.15;;;18.60;99.90;;;;;;5075170;28;20052;-71
2022/08/17 05:33:13;;;;;;;50.53;41.40;;;18.50;99.90;;;;;;5069384;28;20155;-71
2022/08/17 05:35:42;;;;;;;57.22;44.58;;;18.50;99.90;;;;;;5071403;28;20075;-70
2022/08/17 05:38:08;;;;;;;49.80;43.10;;;18.30;99.90;;;;;;5061318;28;20048;-72
2022/08/17 05:40:35;;;;;;;48.08;43.15;;;18.20;99.90;;;;;;5061135;28;20048;-71
2022/08/17 05:43:13;;;;;;;53.88;47.97;;;18.40;99.90;;;;;;5052344;28;20049;-71
2022/08/17 05:45:44;;;;;;;52.55;47.03;;;18.20;99.90;;;;;;5042414;28;20050;-72
2022/08/17 05:48:11;;;;;;;61.88;50.10;;;18.30;99.90;;;;;;5074836;28;20123;-72
2022/08/17 05:50:52;;;;;;;57.15;50.70;;;18.30;99.90;;;;;;5048673;28;20057;-74
2022/08/17 05:53:22;;;;;;;64.53;54.97;;;18.30;99.90;;;;;;5041164;28;20154;-73
2022/08/17 05:56:20;;;;;;;67.90;54.65;;;18.40;99.90;;;;;;5029701;28;20181;-73
2022/08/17 05:59:13;;;;;;;70.00;55.92;;;18.50;99.90;;;;;;5031991;28;20060;-73
2022/08/17 06:02:03;;;;;;;65.95;54.83;;;18.50;99.90;;;;;;5018591;28;21894;-72
2022/08/17 06:04:43;;;;;;;53.33;47.60;;;18.70;99.90;;;;;;5030035;28;20147;-72
2022/08/17 06:07:31;;;;;;;55.38;48.67;;;18.70;99.90;;;;;;5022598;28;20164;-72
2022/08/17 06:10:07;;;;;;;58.63;51.60;;;19.00;99.90;;;;;;5033325;28;20655;-72
2022/08/17 06:13:02;;;;;;;64.88;54.58;;;19.00;99.90;;;;;;5035324;28;20052;-72
2022/08/17 06:15:35;;;;;;;68.63;57.70;;;19.20;99.90;;;;;;5033534;28;20079;-71
2022/08/17 06:18:06;;;;;;;62.08;50.15;;;19.20;99.90;;;;;;5025536;28;20419;-72
2022/08/17 06:20:44;;;;;;;60.60;48.50;;;19.20;99.90;;;;;;5032997;28;20045;-72
2022/08/17 06:23:13;;;;;;;57.20;50.85;;;19.30;99.90;;;;;;5026968;28;20049;-71
2022/08/17 06:25:48;;;;;;;60.10;49.42;;;19.40;99.90;;;;;;5032856;28;20364;-72
2022/08/17 06:28:48;;;;;;;50.58;45.05;;;19.50;99.90;;;;;;5032901;28;20585;-72
2022/08/17 06:31:21;;;;;;;50.50;44.78;;;19.60;99.90;;;;;;5019132;28;20053;-72
2022/08/17 06:33:47;;;;;;;54.08;48.22;;;19.50;99.90;;;;;;5030226;28;20063;-72
2022/08/17 06:36:44;;;;;;;50.63;45.05;;;19.50;99.90;;;;;;5001434;28;21660;-73
2022/08/17 06:39:41;;;;;;;49.42;43.78;;;19.60;99.90;;;;;;5036412;28;20048;-71
2022/08/17 06:42:39;;;;;;;52.28;46.63;;;19.70;99.90;;;;;;5029621;28;20914;-69
2022/08/17 06:45:14;;;;;;;57.05;49.83;;;19.60;99.90;;;;;;5031581;28;20042;-70
2022/08/17 06:48:00;;;;;;;57.42;50.28;;;19.60;99.90;;;;;;5021626;28;20455;-69
2022/08/17 06:50:39;;;;;;;59.75;50.90;;;19.60;99.90;;;;;;5034051;28;20471;-69
2022/08/17 06:53:16;;;;;;;57.45;51.08;;;19.60;99.90;;;;;;5035260;28;20163;-68
2022/08/17 06:56:00;;;;;;;56.17;48.13;;;19.60;99.90;;;;;;5037229;28;20049;-68
2022/08/17 06:58:30;;;;;;;57.43;50.07;;;19.70;99.90;;;;;;5033306;28;20045;-68
2022/08/17 07:00:59;;;;;;;50.08;43.22;;;19.70;99.90;;;;;;5031129;28;20302;-69
2022/08/17 07:04:03;;;;;;;53.03;47.25;;;19.70;99.90;;;;;;5031073;28;21485;-68
2022/08/17 07:06:36;;;;;;;54.35;48.13;;;19.80;99.90;;;;;;5030972;28;20045;-71
2022/08/17 07:09:33;;;;;;;61.95;51.90;;;19.70;99.90;;;;;;5033202;28;20060;-71
2022/08/17 07:12:14;;;;;;;59.25;51.53;;;19.70;99.90;;;;;;5027033;28;20065;-70
2022/08/17 07:14:58;;;;;;;57.05;50.80;;;19.70;99.90;;;;;;5032209;28;20053;-70
2022/08/17 07:17:26;;;;;;;54.58;48.50;;;19.90;99.90;;;;;;5034223;28;20118;-69
2022/08/17 07:20:03;;;;;;;56.88;50.35;;;19.80;99.90;;;;;;5015211;28;20036;-69
2022/08/17 07:22:52;;;;;;;56.25;50.28;;;19.90;99.90;;;;;;5037630;28;20059;-69
2022/08/17 07:25:20;;;;;;;56.97;49.25;;;19.90;99.90;;;;;;5054025;28;20040;-68
2022/08/17 07:27:59;;;;;;;59.33;50.92;;;19.80;99.90;;;;;;5058937;28;20094;-68
2022/08/17 07:30:32;;;;;;;60.40;51.97;;;19.90;99.90;;;;;;5053996;28;20067;-67
2022/08/17 07:33:07;;;;;;;62.92;52.80;;;20.00;99.90;;;;;;5056036;28;20052;-69
2022/08/17 07:35:38;;;;;;;60.35;48.85;;;19.90;99.90;;;;;;5048988;28;20056;-68
2022/08/17 07:38:30;;;;;;;59.03;50.10;;;20.10;99.90;;;;;;5005036;28;20454;-70
2022/08/17 07:41:03;;;;;;;54.45;48.63;;;20.10;99.90;;;;;;5032122;28;20131;-71
2022/08/17 07:43:38;;;;;;;57.97;49.47;;;20.00;99.90;;;;;;5033032;28;20056;-69
2022/08/17 07:49:19;;;;;;;57.22;51.25;;;20.10;99.90;;;;;;5034860;28;20901;-67
2022/08/17 07:51:49;;;;;;;55.33;49.47;;;20.00;99.90;;;;;;5031205;28;20049;-72
2022/08/17 07:54:14;;;;;;;54.45;48.53;;;20.00;99.90;;;;;;5033206;28;20102;-71
2022/08/17 07:56:40;;;;;;;57.15;50.25;;;20.10;99.90;;;;;;5033334;28;20052;-71
2022/08/17 07:59:17;;;;;;;56.42;50.42;;;20.00;99.90;;;;;;5034220;28;20458;-72
2022/08/17 08:01:59;;;;;;;58.00;51.88;;;20.10;99.90;;;;;;5033307;28;20045;-70
2022/08/17 08:04:35;;;;;;;59.60;53.30;;;20.10;99.90;;;;;;5033228;28;20049;-69
2022/08/17 08:07:06;;;;;;;61.42;54.70;;;20.10;99.90;;;;;;5031349;28;20459;-68
2022/08/17 08:09:37;;;;;;;58.05;51.80;;;20.00;99.90;;;;;;5035093;28;20053;-68
2022/08/17 08:12:28;;;;;;;59.35;53.15;;;20.00;99.90;;;;;;5031576;28;20068;-68
2022/08/17 08:14:58;;;;;;;54.35;48.67;;;20.00;99.90;;;;;;5037272;28;20053;-68
2022/08/17 08:17:35;;;;;;;58.58;52.65;;;20.10;99.90;;;;;;5032921;28;20054;-69
2022/08/17 08:20:07;;;;;;;64.85;55.95;;;20.00;99.90;;;;;;5035122;28;20053;-71
2022/08/17 08:22:51;;;;;;;58.28;52.05;;;20.00;99.90;;;;;;5037432;28;20048;-71
2022/08/17 08:25:48;;;;;;;63.63;56.38;;;20.00;99.90;;;;;;5024100;28;20099;-70
2022/08/17 08:28:44;;;;;;;63.80;54.83;;;20.10;99.90;;;;;;5034378;28;20059;-72
2022/08/17 08:31:50;;;;;;;63.83;54.80;;;19.90;99.90;;;;;;5019966;28;20060;-71
2022/08/17 08:34:44;;;;;;;59.70;53.40;;;20.00;99.90;;;;;;5031940;28;20075;-70
2022/08/17 08:37:17;;;;;;;56.17;50.38;;;19.90;99.90;;;;;;5031077;28;20051;-71
2022/08/17 08:40:07;;;;;;;55.60;49.80;;;19.90;99.90;;;;;;5031841;28;20047;-71
2022/08/17 08:42:36;;;;;;;58.05;50.83;;;20.10;99.90;;;;;;5033428;28;20085;-69
2022/08/17 08:45:25;;;;;;;64.75;57.75;;;19.90;99.90;;;;;;5033948;28;20067;-72
2022/08/17 08:48:16;;;;;;;83.95;61.33;;;19.90;99.90;;;;;;4999989;28;20045;-71
2022/08/17 08:50:58;;;;;;;71.32;59.95;;;19.90;99.90;;;;;;5009732;28;20045;-71
2022/08/17 08:54:03;;;;;;;70.63;58.47;;;19.80;99.90;;;;;;5031590;28;20115;-71
2022/08/17 08:56:48;;;;;;;66.78;56.70;;;19.80;99.90;;;;;;5034742;28;20063;-72
2022/08/17 08:59:55;;;;;;;62.47;54.42;;;19.80;99.90;;;;;;5030504;28;20076;-71
2022/08/17 09:02:55;;;;;;;67.22;55.38;;;19.80;99.90;;;;;;5017622;28;20150;-70
2022/08/17 09:05:24;;;;;;;62.22;54.35;;;19.70;99.90;;;;;;5031939;28;20081;-72
2022/08/17 09:07:53;;;;;;;67.25;55.50;;;19.80;99.90;;;;;;5034485;28;20134;-71
2022/08/17 09:10:24;;;;;;;68.15;54.50;;;19.80;99.90;;;;;;5031296;28;20094;-69
2022/08/17 09:13:10;;;;;;;63.92;53.53;;;19.70;99.90;;;;;;5032191;28;20040;-72
2022/08/17 09:15:48;;;;;;;63.75;52.08;;;19.60;99.90;;;;;;5031201;28;20737;-73
2022/08/17 09:18:26;;;;;;;59.45;51.75;;;19.60;99.90;;;;;;5033432;28;20076;-72
2022/08/17 09:21:07;;;;;;;57.60;48.28;;;19.70;99.90;;;;;;5031275;28;20086;-69
2022/08/17 09:23:40;;;;;;;61.53;49.25;;;19.60;99.90;;;;;;5031095;28;20051;-69
2022/08/17 09:26:19;;;;;;;59.50;49.05;;;19.60;99.90;;;;;;5030431;28;20181;-69
2022/08/17 09:28:50;;;;;;;52.83;47.05;;;19.70;99.90;;;;;;5033405;28;20045;-70
2022/08/17 09:31:34;;;;;;;60.20;48.20;;;19.60;99.90;;;;;;5016202;28;20080;-70
2022/08/17 09:34:03;;;;;;;46.80;40.60;;;19.60;99.90;;;;;;5029607;28;20172;-70
2022/08/17 09:36:48;;;;;;;36.15;31.05;;;19.40;99.90;;;;;;5030977;28;20060;-68
2022/08/17 09:39:22;;;;;;;35.38;31.02;;;19.40;99.90;;;;;;5034082;28;20123;-69
2022/08/17 09:42:07;;;;;;;39.53;33.40;;;19.30;99.90;;;;;;5030862;28;20195;-71
2022/08/17 09:44:41;;;;;;;33.47;30.05;;;19.10;99.90;;;;;;5018708;28;20845;-72
2022/08/17 09:47:29;;;;;;;35.97;31.65;;;19.10;99.90;;;;;;5033641;28;20045;-70
2022/08/17 09:50:05;;;;;;;32.78;28.95;;;19.20;99.90;;;;;;5034235;28;20044;-70
2022/08/17 09:52:31;;;;;;;31.35;28.23;;;19.10;99.90;;;;;;5030658;28;20182;-70
2022/08/17 09:54:59;;;;;;;29.33;26.30;;;18.90;99.90;;;;;;5031008;28;20127;-71
2022/08/17 09:57:48;;;;;;;28.70;25.77;;;18.80;99.90;;;;;;5029797;28;20049;-69
2022/08/17 10:00:24;;;;;;;35.13;30.17;;;18.80;99.90;;;;;;5012674;28;20148;-70
2022/08/17 10:03:16;;;;;;;38.45;34.17;;;18.70;99.90;;;;;;5030803;28;20087;-72
2022/08/17 10:05:55;;;;;;;38.80;31.85;;;18.80;99.90;;;;;;5029578;28;21883;-71
2022/08/17 10:08:40;;;;;;;33.03;27.70;;;18.80;99.90;;;;;;5031530;28;20090;-71
2022/08/17 10:12:14;;;;;;;34.00;29.15;;;18.70;99.90;;;;;;5031320;28;20060;-72
2022/08/17 10:14:22;;;;;;;39.60;27.88;;;18.60;99.90;;;;;;5043197;28;20490;-72
2022/08/17 10:17:29;;;;;;;28.13;25.13;;;18.80;99.90;;;;;;5070457;28;20071;-72
2022/08/17 10:20:32;;;;;;;28.08;25.13;;;18.70;99.90;;;;;;5028251;28;20068;-74
2022/08/17 10:26:15;;;;;;;28.55;25.60;;;18.60;99.90;;;;;;5016616;28;20391;-71
2022/08/17 10:28:57;;;;;;;28.20;25.30;;;18.50;99.90;;;;;;5034373;28;20041;-73
2022/08/17 10:31:28;;;;;;;25.08;22.67;;;18.30;99.90;;;;;;5037831;28;20094;-72
2022/08/17 10:34:01;;;;;;;27.85;23.02;;;18.20;99.90;;;;;;5053919;28;20056;-73
2022/08/17 10:36:49;;;;;;;29.02;23.75;;;18.20;99.90;;;;;;5036859;28;20053;-72
2022/08/17 10:39:29;;;;;;;28.48;23.35;;;18.10;99.90;;;;;;5054244;28;20060;-70
2022/08/17 10:42:00;;;;;;;28.42;25.08;;;18.00;99.90;;;;;;5053858;28;20360;-70
2022/08/17 10:44:45;;;;;;;26.35;23.48;;;18.10;99.90;;;;;;5054367;28;20056;-70
2022/08/17 10:47:18;;;;;;;27.00;24.10;;;18.30;99.90;;;;;;5054160;28;20132;-70
2022/08/17 10:49:48;;;;;;;30.10;26.73;;;18.30;99.90;;;;;;5047364;28;20048;-70
2022/08/17 10:52:22;;;;;;;30.55;27.25;;;18.50;99.90;;;;;;5045315;28;20041;-73
2022/08/17 10:55:13;;;;;;;27.58;24.85;;;18.60;99.90;;;;;;5050597;28;20056;-72
2022/08/17 10:57:43;;;;;;;31.40;28.25;;;18.80;99.90;;;;;;5054099;28;20063;-72
2022/08/17 11:00:14;;;;;;;27.92;24.95;;;18.90;99.90;;;;;;5054097;28;20414;-71
2022/08/17 11:02:53;;;;;;;29.23;26.08;;;19.10;99.90;;;;;;5047830;28;20075;-72
2022/08/17 11:05:38;;;;;;;21.38;19.10;;;19.10;99.90;;;;;;5053636;28;20378;-71
2022/08/17 11:08:44;;;;;;;22.70;20.13;;;19.30;99.90;;;;;;5054043;28;20041;-70
2022/08/17 11:11:46;;;;;;;21.13;19.02;;;19.30;99.90;;;;;;5033661;28;20057;-74
2022/08/17 11:14:36;;;;;;;21.10;18.70;;;19.40;99.90;;;;;;5033745;28;20486;-71
2022/08/17 11:17:36;;;;;;;20.40;18.45;;;19.40;99.90;;;;;;5040976;28;20471;-71
2022/08/17 11:20:08;;;;;;;19.38;17.33;;;19.40;99.90;;;;;;5055257;28;20037;-71
2022/08/17 11:23:00;;;;;;;20.33;17.52;;;19.50;99.90;;;;;;5070117;28;20060;-68
2022/08/17 11:25:41;;;;;;;20.90;18.80;;;19.40;99.90;;;;;;5037747;28;20136;-70
2022/08/17 11:28:20;;;;;;;21.13;19.13;;;19.50;99.90;;;;;;5036943;28;20619;-66
2022/08/17 11:30:47;;;;;;;21.33;18.98;;;19.50;99.90;;;;;;5037519;28;20414;-71
2022/08/17 11:33:43;;;;;;;23.65;20.73;;;19.60;99.90;;;;;;5037015;28;20057;-71
2022/08/17 11:36:36;;;;;;;22.83;20.05;;;19.60;99.90;;;;;;5059655;28;20197;-70
2022/08/17 11:39:18;;;;;;;25.05;22.27;;;19.70;99.90;;;;;;5074991;28;20040;-71
2022/08/17 11:41:57;;;;;;;27.75;22.75;;;19.70;99.90;;;;;;5077298;28;20049;-72
2022/08/17 11:44:43;;;;;;;25.77;23.17;;;19.80;99.90;;;;;;5077278;28;20518;-74
2022/08/17 11:53:37;;;;;;;29.35;26.25;;;19.90;99.90;;;;;;5076538;28;20375;-70
2022/08/17 11:56:03;;;;;;;31.90;28.10;;;19.90;99.90;;;;;;5077017;28;20105;-72
2022/08/17 11:58:28;;;;;;;33.25;28.92;;;20.00;99.90;;;;;;5076836;28;20460;-70
2022/08/17 12:01:00;;;;;;;34.22;30.77;;;20.00;99.90;;;;;;5077050;28;20043;-70
2022/08/17 12:03:32;;;;;;;37.88;33.78;;;20.00;99.90;;;;;;5076419;28;20037;-69
2022/08/17 12:06:31;;;;;;;37.22;33.47;;;20.20;99.90;;;;;;5074372;28;20032;-70
2022/08/17 12:09:16;;;;;;;35.75;32.15;;;20.20;99.90;;;;;;5059199;28;20048;-73
2022/08/17 12:11:48;;;;;;;35.35;31.80;;;20.10;99.90;;;;;;5076680;28;20409;-73
2022/08/17 12:14:21;;;;;;;34.67;31.08;;;20.20;99.90;;;;;;5076691;28;20048;-73
2022/08/17 12:17:08;;;;;;;31.95;28.73;;;20.10;99.90;;;;;;5076778;28;20036;-72
2022/08/17 12:19:35;;;;;;;31.95;28.58;;;20.20;99.90;;;;;;5074365;28;20490;-73
2022/08/17 12:22:28;;;;;;;28.98;25.90;;;20.10;99.90;;;;;;5076586;28;20075;-72
2022/08/17 12:25:09;;;;;;;28.77;25.10;;;20.20;99.90;;;;;;5076058;28;20541;-74
2022/08/17 12:27:36;;;;;;;27.15;24.35;;;20.30;99.90;;;;;;5072149;28;20049;-75
2022/08/17 12:30:08;;;;;;;26.52;23.35;;;20.20;99.90;;;;;;5076357;28;20438;-72
2022/08/17 12:32:35;;;;;;;25.05;22.45;;;20.30;99.90;;;;;;5058362;28;20127;-72
2022/08/17 12:35:03;;;;;;;26.77;24.00;;;20.30;99.90;;;;;;5075427;28;20041;-72
2022/08/17 12:37:32;;;;;;;25.42;22.67;;;20.50;99.90;;;;;;5074346;28;20359;-73
2022/08/17 12:40:06;;;;;;;26.05;22.70;;;20.50;99.90;;;;;;5076300;28;20045;-71
2022/08/17 12:42:36;;;;;;;23.05;20.42;;;20.70;99.90;;;;;;5076250;28;20045;-72
2022/08/17 12:45:05;;;;;;;24.80;22.13;;;20.70;99.90;;;;;;5075578;28;20048;-70
2022/08/17 12:47:35;;;;;;;22.50;20.20;;;20.90;99.90;;;;;;5075734;28;20451;-72
2022/08/17 12:50:12;;;;;;;27.13;20.90;;;21.00;99.90;;;;;;5075917;28;20060;-72
2022/08/17 12:52:41;;;;;;;20.30;18.23;;;21.00;99.90;;;;;;5058409;28;20056;-75
2022/08/17 12:55:09;;;;;;;24.88;19.60;;;21.20;99.90;;;;;;5056063;28;20091;-73
2022/08/17 12:57:42;;;;;;;22.85;19.90;;;21.30;99.90;;;;;;5055973;28;20055;-71
2022/08/17 13:00:20;;;;;;;21.42;19.00;;;21.40;99.90;;;;;;5055758;28;20448;-75
2022/08/17 13:03:12;;;;;;;23.55;19.05;;;21.40;99.90;;;;;;5055875;28;20098;-73
2022/08/17 13:05:42;;;;;;;21.33;18.73;;;21.50;99.90;;;;;;5053042;28;20139;-72
2022/08/17 13:08:23;;;;;;;20.85;18.60;;;21.60;99.90;;;;;;5075644;28;20408;-71
2022/08/17 13:11:19;;;;;;;20.75;18.60;;;21.70;99.90;;;;;;5040431;28;20529;-73
2022/08/17 13:13:50;;;;;;;20.40;18.42;;;21.80;99.90;;;;;;5067646;28;20056;-72
2022/08/17 13:16:17;;;;;;;18.77;17.02;;;21.70;99.90;;;;;;5075460;28;20478;-73
2022/08/17 13:18:44;;;;;;;18.55;16.58;;;21.60;99.90;;;;;;5072809;28;20045;-71
2022/08/17 13:21:32;;;;;;;18.38;16.45;;;21.60;99.90;;;;;;5075479;28;20056;-74
2022/08/17 13:24:09;;;;;;;18.38;16.25;;;21.40;99.90;;;;;;5075412;28;20044;-74
2022/08/17 13:26:39;;;;;;;17.98;16.13;;;21.40;99.90;;;;;;5075492;28;20105;-73
2022/08/17 13:29:26;;;;;;;19.08;15.75;;;21.30;99.90;;;;;;5075294;28;20051;-74